createdAt,value
2017-09-04T00:04:43.031Z,6.50
2017-09-04T00:09:45.673Z,5.97
2017-09-04T00:14:47.412Z,6.40
2017-09-04T00:19:49.076Z,5.80
2017-09-04T00:24:50.700Z,5.77
2017-09-04T00:29:52.375Z,5.60
2017-09-04T00:34:54.076Z,5.17
2017-09-04T00:39:55.722Z,5.40
2017-09-04T00:44:57.396Z,5.20
2017-09-04T00:49:59.097Z,5.10
2017-09-04T00:55:00.763Z,4.60
2017-09-04T01:00:02.466Z,4.80
2017-09-04T01:05:04.066Z,5.63
2017-09-04T01:10:05.680Z,6.00
2017-09-04T01:15:07.328Z,5.10
2017-09-04T01:20:09.032Z,5.67
2017-09-04T01:25:10.664Z,5.20
2017-09-04T01:30:12.332Z,5.40
2017-09-04T01:35:14.004Z,5.40
2017-09-04T01:40:15.578Z,5.40
2017-09-04T01:45:17.250Z,5.67
2017-09-04T01:50:18.920Z,5.57
2017-09-04T01:55:20.604Z,5.40
2017-09-04T02:00:22.271Z,5.43
2017-09-04T02:05:23.932Z,5.90
2017-09-04T02:10:25.698Z,5.00
2017-09-04T02:15:27.352Z,5.37
2017-09-04T02:20:29.024Z,4.93
2017-09-04T02:25:30.697Z,4.70
2017-09-04T02:30:32.369Z,4.67
2017-09-04T02:35:34.013Z,5.00
2017-09-04T02:40:50.655Z,5.23
2017-09-04T02:46:06.917Z,4.90
2017-09-04T02:51:23.463Z,5.10
2017-09-04T02:56:41.630Z,5.53
2017-09-04T03:01:58.150Z,5.50
2017-09-04T03:07:14.763Z,6.20
2017-09-04T03:12:31.113Z,6.00
2017-09-04T03:17:43.655Z,4.87
2017-09-04T03:22:45.398Z,5.60
2017-09-04T03:27:47.123Z,5.33
2017-09-04T03:32:49.294Z,5.53
2017-09-04T03:37:51.260Z,5.10
2017-09-04T03:42:54.775Z,4.80
2017-09-04T03:47:56.633Z,5.97
2017-09-04T03:52:58.532Z,5.13
2017-09-04T03:58:00.613Z,4.80
2017-09-04T04:03:02.464Z,5.23
2017-09-04T04:08:04.366Z,5.73
2017-09-04T04:13:06.221Z,5.90
2017-09-04T04:18:07.918Z,5.57
2017-09-04T04:23:09.590Z,5.40
2017-09-04T04:28:11.476Z,5.53
2017-09-04T04:33:13.141Z,5.27
2017-09-04T04:38:14.792Z,4.97
2017-09-04T04:43:16.537Z,5.27
2017-09-04T04:48:18.200Z,5.87
2017-09-04T04:53:20.896Z,5.90
2017-09-04T04:58:22.562Z,5.00
2017-09-04T05:03:24.236Z,5.83
2017-09-04T05:08:25.940Z,5.23
2017-09-04T05:13:27.683Z,5.40
2017-09-04T05:18:29.364Z,5.80
2017-09-04T05:23:31.076Z,4.90
2017-09-04T05:28:32.732Z,4.67
2017-09-04T05:33:34.517Z,4.07
2017-09-04T05:38:36.275Z,4.40
2017-09-04T05:43:37.921Z,3.93
2017-09-04T05:48:39.601Z,5.13
2017-09-04T05:53:41.292Z,5.40
2017-09-04T05:58:43.036Z,5.50
2017-09-04T06:03:45.700Z,5.13
2017-09-04T06:08:47.319Z,5.80
2017-09-04T06:13:49.799Z,5.20
2017-09-04T06:18:53.188Z,4.97
2017-09-04T06:23:54.775Z,5.83
2017-09-04T06:28:57.385Z,5.60
2017-09-04T06:33:59.168Z,5.77
2017-09-04T06:39:00.973Z,6.17
2017-09-04T06:44:02.757Z,5.83
2017-09-04T06:49:05.416Z,5.03
2017-09-04T06:54:07.077Z,5.67
2017-09-04T06:59:08.748Z,5.20
2017-09-04T07:04:11.474Z,6.00
2017-09-04T07:09:13.132Z,6.23
2017-09-04T07:14:14.754Z,6.50
2017-09-04T07:19:16.464Z,6.60
2017-09-04T07:24:18.154Z,6.40
2017-09-04T07:29:19.807Z,6.27
2017-09-04T07:34:21.480Z,6.40
2017-09-04T07:39:23.156Z,7.63
2017-09-04T07:44:24.828Z,6.90
2017-09-04T07:49:26.505Z,6.80
2017-09-04T07:54:28.158Z,6.20
2017-09-04T07:59:29.853Z,6.73
2017-09-04T08:04:31.536Z,7.13
2017-09-04T08:09:33.205Z,7.50
2017-09-04T08:14:34.916Z,7.73
2017-09-04T08:19:36.518Z,7.90
2017-09-04T08:24:39.148Z,8.80
2017-09-04T08:29:40.807Z,8.57
2017-09-04T08:34:42.484Z,7.97
2017-09-04T08:39:44.160Z,7.53
2017-09-04T08:44:45.854Z,7.97
2017-09-04T08:49:47.563Z,8.23
2017-09-04T08:54:49.248Z,8.10
2017-09-04T08:59:50.849Z,7.83
2017-09-04T09:04:52.564Z,7.40
2017-09-04T09:09:54.239Z,8.97
2017-09-04T09:14:57.922Z,7.90
2017-09-04T09:19:59.585Z,7.27
2017-09-04T09:25:01.316Z,7.50
2017-09-04T09:30:02.976Z,7.27
2017-09-04T09:35:05.630Z,6.63
2017-09-04T09:40:07.405Z,6.60
2017-09-04T09:45:09.179Z,7.10
2017-09-04T09:50:10.872Z,6.63
2017-09-04T09:55:12.564Z,7.30
2017-09-04T10:00:14.312Z,6.80
2017-09-04T10:05:16.012Z,10.80
2017-09-04T10:10:17.677Z,7.13
2017-09-04T10:15:19.360Z,6.17
2017-09-04T10:20:21.041Z,5.67
2017-09-04T10:25:22.704Z,6.13
2017-09-04T10:30:24.480Z,6.33
2017-09-04T10:35:26.169Z,5.73
2017-09-04T10:40:27.825Z,5.37
2017-09-04T10:45:29.501Z,4.63
2017-09-04T10:50:31.157Z,4.23
2017-09-04T10:55:32.808Z,3.67
2017-09-04T11:00:36.397Z,4.43
2017-09-04T11:05:39.011Z,3.77
2017-09-04T11:10:40.857Z,3.93
2017-09-04T11:15:42.490Z,3.93
2017-09-04T11:20:44.168Z,3.77
2017-09-04T11:25:45.852Z,3.80
2017-09-04T11:30:47.514Z,3.70
2017-09-04T11:35:49.200Z,3.40
2017-09-04T11:40:50.816Z,3.43
2017-09-04T11:45:52.509Z,3.40
2017-09-04T11:50:54.231Z,3.60
2017-09-04T11:55:55.944Z,4.17
2017-09-04T12:00:57.753Z,3.83
2017-09-04T12:06:00.420Z,3.97
2017-09-04T12:11:02.112Z,3.93
2017-09-04T12:16:03.760Z,3.37
2017-09-04T12:21:05.534Z,4.10
2017-09-04T12:26:07.252Z,3.30
2017-09-04T12:31:08.914Z,4.20
2017-09-04T12:36:10.568Z,4.10
2017-09-04T12:41:12.272Z,9.70
2017-09-04T12:46:13.908Z,3.40
2017-09-04T12:51:15.580Z,3.07
2017-09-04T12:56:18.687Z,3.13
2017-09-04T13:01:20.348Z,3.03
2017-09-04T13:06:22.332Z,3.23
2017-09-04T13:11:26.869Z,3.70
2017-09-04T13:16:34.649Z,3.80
2017-09-04T13:21:42.289Z,3.40
2017-09-04T13:26:49.928Z,3.00
2017-09-04T13:31:57.694Z,3.33
2017-09-04T13:47:51.124Z,3.80
2017-09-04T13:52:58.880Z,3.30
2017-09-04T13:58:06.488Z,3.60
2017-09-04T14:03:28.889Z,2.97
2017-09-04T14:08:36.596Z,3.17
2017-09-04T14:13:47.178Z,2.93
2017-09-04T14:18:48.996Z,3.50
2017-09-04T14:23:50.624Z,3.70
2017-09-04T14:28:52.314Z,6.50
2017-09-04T14:33:53.985Z,3.07
2017-09-04T14:38:55.664Z,2.60
2017-09-04T14:44:12.223Z,2.93
2017-09-04T14:49:13.939Z,2.70
2017-09-04T14:54:15.611Z,2.53
2017-09-04T14:59:17.333Z,2.80
2017-09-04T15:04:19.956Z,3.10
2017-09-04T15:09:21.568Z,3.10
2017-09-04T15:14:23.246Z,3.00
2017-09-04T15:19:24.910Z,3.20
2017-09-04T15:24:26.601Z,3.70
2017-09-04T15:29:28.252Z,5.10
2017-09-04T15:34:31.185Z,3.17
2017-09-04T15:39:32.946Z,3.30
2017-09-04T15:44:34.619Z,3.00
2017-09-04T15:49:36.396Z,2.80
2017-09-04T15:54:38.068Z,2.80
2017-09-04T15:59:39.730Z,3.60
2017-09-04T16:04:41.509Z,3.30
2017-09-04T16:09:43.240Z,3.37
2017-09-04T16:14:46.836Z,3.60
2017-09-04T16:19:48.413Z,3.73
2017-09-04T16:24:50.140Z,4.03
2017-09-04T16:29:55.953Z,3.73
2017-09-04T16:34:59.746Z,3.83
2017-09-04T16:40:01.509Z,3.07
2017-09-04T16:45:05.192Z,3.33
2017-09-04T16:50:07.985Z,3.10
2017-09-04T16:55:10.718Z,3.50
2017-09-04T17:00:13.420Z,3.70
2017-09-04T17:05:16.117Z,3.57
2017-09-04T17:10:18.547Z,3.33
2017-09-04T17:15:26.072Z,3.90
2017-09-04T17:20:27.726Z,3.43
2017-09-04T17:25:31.437Z,3.77
2017-09-04T17:30:33.042Z,3.40
2017-09-04T17:35:34.736Z,3.63
2017-09-04T17:40:36.416Z,3.90
2017-09-04T17:45:38.249Z,4.93
2017-09-04T17:50:39.873Z,4.67
2017-09-04T17:55:41.544Z,4.43
2017-09-04T18:00:43.235Z,4.50
2017-09-04T18:05:44.880Z,9.07
2017-09-04T18:10:46.534Z,4.00
2017-09-04T18:15:48.214Z,4.50
2017-09-04T18:20:49.913Z,4.30
2017-09-04T18:25:51.596Z,4.13
2017-09-04T18:30:53.259Z,4.40
2017-09-04T18:35:56.648Z,4.07
2017-09-04T18:41:03.902Z,5.10
2017-09-04T18:46:06.110Z,5.03
2017-09-04T18:51:07.961Z,4.80
2017-09-04T18:56:09.592Z,4.63
2017-09-04T19:01:12.287Z,4.53
2017-09-04T19:06:14.001Z,5.00
2017-09-04T19:11:16.281Z,4.33
2017-09-04T19:16:19.177Z,3.83
2017-09-04T19:21:21.952Z,3.87
2017-09-04T19:26:24.890Z,3.43
2017-09-04T19:31:27.228Z,3.97
2017-09-04T19:36:29.261Z,3.60
2017-09-04T19:41:31.110Z,3.87
2017-09-04T19:46:41.972Z,3.60
2017-09-04T19:51:44.417Z,3.93
2017-09-04T19:56:46.293Z,3.27
2017-09-04T20:01:48.171Z,3.67
2017-09-04T20:06:49.832Z,3.83
2017-09-04T20:11:51.723Z,3.70
2017-09-04T20:16:53.572Z,3.53
2017-09-04T20:21:55.880Z,3.60
2017-09-04T20:26:58.583Z,3.53
2017-09-04T20:32:00.338Z,3.70
2017-09-04T20:37:02.004Z,3.50
2017-09-04T20:42:03.678Z,3.63
2017-09-04T20:47:06.401Z,3.70
2017-09-04T20:52:08.258Z,3.53
2017-09-04T20:57:09.909Z,3.77
2017-09-04T21:02:11.827Z,3.83
2017-09-04T21:07:13.705Z,3.67
2017-09-04T21:12:15.557Z,3.80
2017-09-04T21:17:18.284Z,3.50
2017-09-04T21:22:20.128Z,4.50
2017-09-04T21:27:22.470Z,4.00
2017-09-04T21:32:24.704Z,3.80
2017-09-04T21:37:27.224Z,3.77
2017-09-04T21:42:29.101Z,3.70
2017-09-04T21:47:31.414Z,3.70
2017-09-04T21:52:33.037Z,3.30
2017-09-04T21:57:35.342Z,4.87
2017-09-04T22:02:37.020Z,4.20
2017-09-04T22:07:39.316Z,3.90
2017-09-04T22:12:41.082Z,3.30
2017-09-04T22:17:42.756Z,3.10
2017-09-04T22:22:44.433Z,2.90
2017-09-04T22:27:46.062Z,2.93
2017-09-04T22:32:47.977Z,3.10
2017-09-04T22:37:49.650Z,2.93
2017-09-04T22:42:52.354Z,3.10
2017-09-04T22:47:54.087Z,3.30
2017-09-04T22:52:56.718Z,2.67
2017-09-04T22:57:58.594Z,3.43
2017-09-04T23:03:01.906Z,4.17
2017-09-04T23:08:03.544Z,3.43
2017-09-04T23:13:07.298Z,3.27
2017-09-04T23:18:08.972Z,3.93
2017-09-04T23:23:11.424Z,3.90
2017-09-04T23:28:13.095Z,3.53
2017-09-04T23:33:17.062Z,4.33
2017-09-04T23:38:18.693Z,3.60
2017-09-04T23:43:24.930Z,3.50
2017-09-04T23:48:26.584Z,3.07
2017-09-04T23:53:28.808Z,4.20
2017-09-04T23:58:30.751Z,3.87
